Time;durP1;ratioP1;P1;durP2;ratioP2;P2;SDS_P1;SDS_P2;PMS_P1;PMS_P2;Temp;Humidity;BMP_temperature;BMP_pressure;BME280_temperature;BME280_humidity;BME280_pressure;Samples;Min_cycle;Max_cycle;Signal;HPM_P1;HPM_P2
2023/06/14 00:00:05;;;;;;;;;;;18.10;60.00;;;;;;5048950;28;19996;-41
2023/06/14 00:02:31;;;;;;;;;;;18.10;60.10;;;;;;5047262;28;20023;-41
2023/06/14 00:04:59;;;;;;;;;;;18.00;59.60;;;;;;5051452;28;19928;-41
2023/06/14 00:07:34;;;;;;;;;;;18.00;59.70;;;;;;5044024;28;19925;-40
2023/06/14 00:10:01;;;;;;;;;;;18.00;59.90;;;;;;5047557;28;19979;-38
2023/06/14 00:12:27;;;;;;;;;;;17.90;59.90;;;;;;5043982;28;19976;-39
2023/06/14 00:14:55;;;;;;;;;;;17.90;60.40;;;;;;5049104;28;19970;-40
2023/06/14 00:17:22;;;;;;;;;;;17.90;60.60;;;;;;5050506;28;20012;-39
2023/06/14 00:19:49;;;;;;;;;;;17.80;60.90;;;;;;5054364;28;19925;-40
2023/06/14 00:22:15;;;;;;;;;;;17.70;60.50;;;;;;5049440;28;19972;-39
2023/06/14 00:24:42;;;;;;;;;;;17.60;60.80;;;;;;5032492;28;20372;-41
2023/06/14 00:27:09;;;;;;;;;;;17.70;60.70;;;;;;5039033;28;20003;-40
2023/06/14 00:29:36;;;;;;;;;;;17.60;61.10;;;;;;5051700;28;19925;-38
2023/06/14 00:32:04;;;;;;;;;;;17.60;61.00;;;;;;5053428;28;19960;-41
2023/06/14 00:34:31;;;;;;;;;;;17.50;61.30;;;;;;5047835;28;19925;-41
2023/06/14 00:36:58;;;;;;;;;;;17.50;61.30;;;;;;5029281;28;19933;-39
2023/06/14 00:39:24;;;;;;;;;;;17.40;61.90;;;;;;5041278;28;19925;-38
2023/06/14 00:41:51;;;;;;;;;;;17.30;61.60;;;;;;5037809;28;20015;-41
2023/06/14 00:44:18;;;;;;;;;;;17.30;61.60;;;;;;5036197;28;19933;-41
2023/06/14 00:46:45;;;;;;;;;;;17.20;62.10;;;;;;5054067;28;19925;-40
2023/06/14 00:49:13;;;;;;;;;;;17.20;62.70;;;;;;5052599;28;19960;-39
2023/06/14 00:51:40;;;;;;;;;;;17.10;63.10;;;;;;5053048;28;19967;-41
2023/06/14 00:54:07;;;;;;;;;;;17.10;61.90;;;;;;5052167;28;20012;-41
2023/06/14 00:56:33;;;;;;;;;;;17.00;63.20;;;;;;5047748;28;20011;-39
2023/06/14 00:59:00;;;;;;;;;;;17.00;62.20;;;;;;5033443;28;19972;-36
2023/06/14 01:01:28;;;;;;;;;;;17.00;63.00;;;;;;5031163;28;19986;-40
2023/06/14 01:03:55;;;;;;;;;;;17.00;62.90;;;;;;5033719;28;20036;-40
2023/06/14 01:06:26;;;;;;;;;;;17.00;63.00;;;;;;5039261;28;19951;-40
2023/06/14 01:08:57;;;;;;;;;;;16.90;62.70;;;;;;5033745;28;20280;-40
2023/06/14 01:11:26;;;;;;;;;;;16.90;63.20;;;;;;5037429;28;19975;-38
2023/06/14 01:13:52;;;;;;;;;;;16.90;65.50;;;;;;5042284;28;19986;-40
2023/06/14 01:16:19;;;;;;;;;;;16.80;63.50;;;;;;5042880;28;20423;-39
2023/06/14 01:18:47;;;;;;;;;;;16.80;63.00;;;;;;5050589;28;20241;-39
2023/06/14 01:21:41;;;;;;;;;;;16.80;64.80;;;;;;5047481;28;19925;-40
2023/06/14 01:24:10;;;;;;;;;;;16.70;64.30;;;;;;5041149;28;20017;-39
2023/06/14 01:26:37;;;;;;;;;;;16.70;63.90;;;;;;5045547;28;20011;-39
2023/06/14 01:29:04;;;;;;;;;;;16.70;63.50;;;;;;5048040;28;20388;-39
2023/06/14 01:31:41;;;;;;;;;;;16.70;63.90;;;;;;5043684;28;19925;-39
2023/06/14 01:34:07;;;;;;;;;;;16.70;63.30;;;;;;5038539;28;19933;-39
2023/06/14 01:36:34;;;;;;;;;;;16.60;64.30;;;;;;5041068;28;19972;-39
2023/06/14 01:39:01;;;;;;;;;;;16.60;65.30;;;;;;5048400;28;19964;-39
2023/06/14 01:41:28;;;;;;;;;;;16.50;65.00;;;;;;5051898;28;20027;-39
2023/06/14 01:43:55;;;;;;;;;;;16.50;64.60;;;;;;5042367;28;20015;-40
2023/06/14 01:46:22;;;;;;;;;;;16.50;65.50;;;;;;5043430;28;19925;-40
2023/06/14 01:48:48;;;;;;;;;;;16.40;65.20;;;;;;5049074;28;19933;-41
2023/06/14 01:51:15;;;;;;;;;;;16.40;64.90;;;;;;5051126;28;20079;-39
2023/06/14 01:53:42;;;;;;;;;;;16.40;65.00;;;;;;5045034;28;19929;-35
2023/06/14 01:56:08;;;;;;;;;;;16.40;66.30;;;;;;5049353;28;20339;-40
2023/06/14 01:58:36;;;;;;;;;;;16.30;65.50;;;;;;5047193;28;20395;-39
2023/06/14 02:01:03;;;;;;;;;;;16.30;66.50;;;;;;5044607;28;19971;-40
2023/06/14 02:03:29;;;;;;;;;;;16.20;66.40;;;;;;5039384;28;20008;-40
2023/06/14 02:05:56;;;;;;;;;;;16.20;69.80;;;;;;5041556;28;20400;-39
2023/06/14 02:08:23;;;;;;;;;;;16.10;66.80;;;;;;5050314;28;19975;-38
2023/06/14 02:10:50;;;;;;;;;;;16.10;65.90;;;;;;5037059;28;19925;-40
2023/06/14 02:13:16;;;;;;;;;;;16.10;66.00;;;;;;5051480;28;19972;-39
2023/06/14 02:15:45;;;;;;;;;;;16.10;67.70;;;;;;5044657;28;19964;-41
2023/06/14 02:18:11;;;;;;;;;;;16.00;70.00;;;;;;5033333;28;19979;-39
2023/06/14 02:20:38;;;;;;;;;;;15.90;67.80;;;;;;5048572;28;19928;-40
2023/06/14 02:23:05;;;;;;;;;;;15.90;67.30;;;;;;5048565;28;19968;-40
2023/06/14 02:25:31;;;;;;;;;;;15.90;67.20;;;;;;5037973;28;19960;-41
2023/06/14 02:27:58;;;;;;;;;;;15.90;67.60;;;;;;5030732;28;20015;-40
2023/06/14 02:30:24;;;;;;;;;;;15.80;67.20;;;;;;5050068;28;20015;-36
2023/06/14 02:32:53;;;;;;;;;;;15.80;68.00;;;;;;5017129;28;19932;-40
2023/06/14 02:35:20;;;;;;;;;;;15.80;69.50;;;;;;5045198;28;19926;-41
2023/06/14 02:37:47;;;;;;;;;;;15.70;71.80;;;;;;5031851;28;20278;-40
2023/06/14 02:40:13;;;;;;;;;;;15.70;68.90;;;;;;5036372;28;20381;-39
2023/06/14 02:42:40;;;;;;;;;;;15.70;69.30;;;;;;5046975;28;19968;-38
2023/06/14 02:45:07;;;;;;;;;;;15.60;69.00;;;;;;5048930;28;19967;-41
2023/06/14 02:47:34;;;;;;;;;;;15.60;68.50;;;;;;5046491;28;19925;-40
2023/06/14 02:50:02;;;;;;;;;;;15.60;69.20;;;;;;5040249;28;19924;-39
2023/06/14 02:52:29;;;;;;;;;;;15.60;70.00;;;;;;5053983;28;19968;-40
2023/06/14 02:54:55;;;;;;;;;;;15.50;71.40;;;;;;5039359;28;20274;-39
2023/06/14 02:57:22;;;;;;;;;;;15.50;70.40;;;;;;5034274;28;19995;-40
2023/06/14 02:59:49;;;;;;;;;;;15.40;69.90;;;;;;5039904;28;20314;-39
2023/06/14 03:02:16;;;;;;;;;;;15.40;72.80;;;;;;5043969;28;20284;-40
2023/06/14 03:04:44;;;;;;;;;;;15.40;71.50;;;;;;5039076;28;20016;-40
2023/06/14 03:07:12;;;;;;;;;;;15.40;70.70;;;;;;5037477;28;20257;-40
2023/06/14 03:09:39;;;;;;;;;;;15.40;72.50;;;;;;5054198;28;19948;-40
2023/06/14 03:12:07;;;;;;;;;;;15.30;70.80;;;;;;5054399;28;20011;-40
2023/06/14 03:14:34;;;;;;;;;;;15.30;70.90;;;;;;5051549;28;19925;-40
2023/06/14 03:17:01;;;;;;;;;;;15.30;70.20;;;;;;5044864;28;19932;-38
2023/06/14 03:19:28;;;;;;;;;;;15.30;71.20;;;;;;5036308;28;19968;-38
2023/06/14 03:21:56;;;;;;;;;;;15.30;70.60;;;;;;5051826;28;19933;-38
2023/06/14 03:24:27;;;;;;;;;;;15.30;70.90;;;;;;5046345;28;20401;-40
2023/06/14 03:26:53;;;;;;;;;;;15.20;70.30;;;;;;5041386;28;20012;-40
2023/06/14 03:29:20;;;;;;;;;;;15.20;71.90;;;;;;5040354;28;20035;-39
2023/06/14 03:31:57;;;;;;;;;;;15.20;71.70;;;;;;5052283;28;20016;-38
2023/06/14 03:34:23;;;;;;;;;;;15.20;70.90;;;;;;5035502;28;19933;-39
2023/06/14 03:36:50;;;;;;;;;;;15.20;71.10;;;;;;5053429;28;19928;-39
2023/06/14 03:39:17;;;;;;;;;;;15.20;70.80;;;;;;5053567;28;19983;-38
2023/06/14 03:41:44;;;;;;;;;;;15.20;71.70;;;;;;5042227;28;19925;-40
2023/06/14 03:44:11;;;;;;;;;;;15.20;72.10;;;;;;5040825;28;20012;-35
2023/06/14 03:46:38;;;;;;;;;;;15.20;71.70;;;;;;5023202;28;19969;-39
2023/06/14 03:49:04;;;;;;;;;;;15.20;70.70;;;;;;5049679;28;20380;-40
2023/06/14 03:51:31;;;;;;;;;;;15.20;74.20;;;;;;5052897;28;19932;-40
2023/06/14 03:53:58;;;;;;;;;;;15.10;72.30;;;;;;5050056;28;19933;-40
2023/06/14 03:56:25;;;;;;;;;;;15.20;71.80;;;;;;5040380;28;20392;-39
2023/06/14 03:58:53;;;;;;;;;;;15.20;73.30;;;;;;5039757;28;19932;-40
2023/06/14 04:01:25;;;;;;;;;;;15.20;73.50;;;;;;5036377;28;20046;-40
2023/06/14 04:03:51;;;;;;;;;;;15.10;74.00;;;;;;5032046;28;20357;-40
2023/06/14 04:06:19;;;;;;;;;;;15.10;75.20;;;;;;5042675;28;20019;-40
2023/06/14 04:08:46;;;;;;;;;;;15.10;72.80;;;;;;5041386;28;19980;-40
2023/06/14 04:11:12;;;;;;;;;;;15.10;74.10;;;;;;5044895;28;20360;-38
2023/06/14 04:13:39;;;;;;;;;;;15.10;76.10;;;;;;5046763;28;20015;-39
2023/06/14 04:16:07;;;;;;;;;;;15.10;75.60;;;;;;5045783;28;20368;-40
2023/06/14 04:18:34;;;;;;;;;;;15.10;76.00;;;;;;5048067;28;19967;-38
2023/06/14 04:21:00;;;;;;;;;;;15.10;78.40;;;;;;5045195;28;20028;-37
2023/06/14 04:23:28;;;;;;;;;;;15.10;77.20;;;;;;5049059;28;20003;-39
2023/06/14 04:25:54;;;;;;;;;;;15.10;77.40;;;;;;5043140;28;19931;-39
2023/06/14 04:28:26;;;;;;;;;;;15.10;79.50;;;;;;5035102;28;19987;-39
2023/06/14 04:30:53;;;;;;;;;;;15.10;78.00;;;;;;5053743;28;19924;-39
2023/06/14 04:33:22;;;;;;;;;;;15.10;78.00;;;;;;5043581;28;19929;-39
2023/06/14 04:35:53;;;;;;;;;;;15.10;79.80;;;;;;5034058;28;20276;-39
2023/06/14 04:38:23;;;;;;;;;;;15.10;76.60;;;;;;5046927;28;20616;-38
2023/06/14 04:40:52;;;;;;;;;;;15.10;80.30;;;;;;5034046;28;19936;-38
2023/06/14 04:43:24;;;;;;;;;;;15.20;77.40;;;;;;5045110;28;20461;-40
2023/06/14 04:45:51;;;;;;;;;;;15.20;76.70;;;;;;5026980;28;19925;-39
2023/06/14 04:48:20;;;;;;;;;;;15.30;77.70;;;;;;5043479;28;19925;-39
2023/06/14 04:50:48;;;;;;;;;;;15.30;76.50;;;;;;5034953;28;19925;-37
2023/06/14 04:53:14;;;;;;;;;;;15.30;77.60;;;;;;5053414;28;19956;-41
2023/06/14 04:55:44;;;;;;;;;;;15.30;79.50;;;;;;5049307;28;21297;-41
2023/06/14 04:58:12;;;;;;;;;;;15.40;79.50;;;;;;5041150;28;19932;-39
2023/06/14 05:00:39;;;;;;;;;;;15.40;80.10;;;;;;5048170;28;19925;-40
2023/06/14 05:03:06;;;;;;;;;;;15.40;80.40;;;;;;5045504;28;19925;-40
2023/06/14 05:05:34;;;;;;;;;;;15.50;77.80;;;;;;5049258;28;20395;-41
2023/06/14 05:08:02;;;;;;;;;;;15.50;78.50;;;;;;5047751;28;19968;-40
2023/06/14 05:10:28;;;;;;;;;;;15.60;78.30;;;;;;5035540;28;20037;-40
2023/06/14 05:12:55;;;;;;;;;;;15.70;79.60;;;;;;5052179;28;19979;-39
2023/06/14 05:15:25;;;;;;;;;;;15.70;81.10;;;;;;5050238;28;19940;-40
2023/06/14 05:17:54;;;;;;;;;;;15.70;80.70;;;;;;5047520;28;19925;-40
2023/06/14 05:20:22;;;;;;;;;;;15.90;81.60;;;;;;5048946;28;19941;-38
2023/06/14 05:22:50;;;;;;;;;;;15.90;80.90;;;;;;5039063;28;19925;-38
2023/06/14 05:25:17;;;;;;;;;;;15.90;81.90;;;;;;5040727;28;19931;-38
2023/06/14 05:27:44;;;;;;;;;;;16.00;80.60;;;;;;5051308;28;19972;-41
2023/06/14 05:30:11;;;;;;;;;;;16.10;81.10;;;;;;5053153;28;19983;-41
2023/06/14 05:32:38;;;;;;;;;;;16.20;80.10;;;;;;5050858;28;19975;-41
2023/06/14 05:35:05;;;;;;;;;;;16.40;80.40;;;;;;5052208;28;19990;-41
2023/06/14 05:37:32;;;;;;;;;;;16.50;80.30;;;;;;5051053;28;19932;-40
2023/06/14 05:39:58;;;;;;;;;;;16.60;79.40;;;;;;5035212;28;19968;-40
2023/06/14 05:42:26;;;;;;;;;;;16.70;79.10;;;;;;5052510;28;19964;-40
2023/06/14 05:44:53;;;;;;;;;;;16.80;79.70;;;;;;5052030;28;20434;-41
2023/06/14 05:47:20;;;;;;;;;;;16.90;79.90;;;;;;5051880;28;20024;-41
2023/06/14 05:49:46;;;;;;;;;;;17.00;79.00;;;;;;5051632;28;20083;-40
2023/06/14 05:52:13;;;;;;;;;;;17.10;79.30;;;;;;5051565;28;19972;-40
2023/06/14 05:54:41;;;;;;;;;;;17.20;77.60;;;;;;5052523;28;19932;-40
2023/06/14 05:57:07;;;;;;;;;;;17.40;78.20;;;;;;5050573;28;19931;-40
2023/06/14 05:59:36;;;;;;;;;;;17.50;77.90;;;;;;5052578;28;20330;-40
2023/06/14 06:02:02;;;;;;;;;;;17.60;77.00;;;;;;5051704;28;19928;-41
2023/06/14 06:04:29;;;;;;;;;;;17.70;77.40;;;;;;5052466;28;20289;-41
2023/06/14 06:06:56;;;;;;;;;;;17.80;76.40;;;;;;5043546;28;19925;-41
2023/06/14 06:09:22;;;;;;;;;;;17.90;76.30;;;;;;5032182;28;19987;-41
2023/06/14 06:11:49;;;;;;;;;;;18.10;75.80;;;;;;5032517;28;19925;-40
2023/06/14 06:14:15;;;;;;;;;;;18.30;75.50;;;;;;5048127;28;19932;-41
2023/06/14 06:16:43;;;;;;;;;;;18.40;75.10;;;;;;5038071;28;20003;-41
2023/06/14 06:19:10;;;;;;;;;;;18.60;74.80;;;;;;5041250;28;20044;-41
2023/06/14 06:21:37;;;;;;;;;;;18.70;74.80;;;;;;5032327;28;19979;-40
2023/06/14 06:24:05;;;;;;;;;;;18.90;74.50;;;;;;5032315;28;20266;-41
2023/06/14 06:26:31;;;;;;;;;;;19.10;74.10;;;;;;5037472;28;20323;-41
2023/06/14 06:28:59;;;;;;;;;;;19.10;73.70;;;;;;5056437;28;19925;-41
2023/06/14 06:31:27;;;;;;;;;;;19.30;72.90;;;;;;5054935;28;19928;-37
2023/06/14 06:33:55;;;;;;;;;;;19.40;72.70;;;;;;5056371;28;19928;-41
2023/06/14 06:36:22;;;;;;;;;;;19.50;71.90;;;;;;5055192;28;20417;-41
2023/06/14 06:38:48;;;;;;;;;;;19.70;71.90;;;;;;5037401;28;19934;-40
2023/06/14 06:41:15;;;;;;;;;;;19.80;71.80;;;;;;5035844;28;19986;-40
2023/06/14 06:43:42;;;;;;;;;;;19.90;70.90;;;;;;5035952;28;19925;-41
2023/06/14 06:46:08;;;;;;;;;;;20.00;70.60;;;;;;5034609;28;20020;-39
2023/06/14 06:48:35;;;;;;;;;;;20.20;70.50;;;;;;5051088;28;19978;-40
2023/06/14 06:51:03;;;;;;;;;;;20.40;70.40;;;;;;5055976;28;20392;-40
2023/06/14 06:53:30;;;;;;;;;;;20.50;69.90;;;;;;5055674;28;20377;-41
2023/06/14 06:55:56;;;;;;;;;;;20.70;69.40;;;;;;5055793;28;19925;-41
2023/06/14 06:58:23;;;;;;;;;;;20.80;68.20;;;;;;5030327;28;19965;-39
2023/06/14 07:00:50;;;;;;;;;;;20.90;67.50;;;;;;5036082;28;19979;-40
2023/06/14 07:03:17;;;;;;;;;;;21.00;67.80;;;;;;5052563;28;19929;-41
2023/06/14 07:05:44;;;;;;;;;;;21.10;67.50;;;;;;5056230;28;20368;-39
2023/06/14 07:08:12;;;;;;;;;;;21.30;67.40;;;;;;5054842;28;19925;-38
2023/06/14 07:10:39;;;;;;;;;;;21.40;67.00;;;;;;5055343;28;19983;-41
2023/06/14 07:13:05;;;;;;;;;;;21.50;66.20;;;;;;5071323;28;19971;-41
2023/06/14 07:15:32;;;;;;;;;;;21.70;66.00;;;;;;5055564;28;19980;-42
2023/06/14 07:17:59;;;;;;;;;;;21.80;66.00;;;;;;5054504;28;19925;-41
2023/06/14 07:20:26;;;;;;;;;;;22.00;65.70;;;;;;5070865;28;20038;-41
2023/06/14 07:22:52;;;;;;;;;;;22.20;65.00;;;;;;5055297;28;19979;-41
2023/06/14 07:25:22;;;;;;;;;;;22.30;63.40;;;;;;5070610;28;20011;-42
2023/06/14 07:27:48;;;;;;;;;;;22.30;63.10;;;;;;5069825;28;19957;-42
2023/06/14 07:30:15;;;;;;;;;;;22.30;63.10;;;;;;5055402;28;19978;-41
2023/06/14 07:32:42;;;;;;;;;;;22.30;62.90;;;;;;5053877;28;19963;-42
2023/06/14 07:35:08;;;;;;;;;;;22.50;63.50;;;;;;5055243;28;19925;-41
2023/06/14 07:37:36;;;;;;;;;;;22.60;62.30;;;;;;5054051;28;19967;-40
2023/06/14 07:40:06;;;;;;;;;;;22.80;63.10;;;;;;5070647;28;19928;-42
2023/06/14 07:42:35;;;;;;;;;;;22.80;61.70;;;;;;5054245;28;19941;-42
2023/06/14 07:45:02;;;;;;;;;;;22.70;61.80;;;;;;5055030;28;19940;-41
2023/06/14 07:47:29;;;;;;;;;;;22.80;62.20;;;;;;5054175;28;19925;-42
2023/06/14 07:49:55;;;;;;;;;;;22.90;60.80;;;;;;5054887;28;20016;-40
2023/06/14 07:52:22;;;;;;;;;;;22.90;61.60;;;;;;5054718;28;20503;-40
2023/06/14 07:54:49;;;;;;;;;;;23.00;60.80;;;;;;5054709;28;20399;-40
2023/06/14 07:57:15;;;;;;;;;;;23.10;62.40;;;;;;5069464;28;19975;-41
2023/06/14 07:59:43;;;;;;;;;;;23.30;62.00;;;;;;5053666;28;19944;-41
2023/06/14 08:02:10;;;;;;;;;;;23.50;62.20;;;;;;5053580;28;19964;-41
2023/06/14 08:04:36;;;;;;;;;;;23.70;61.70;;;;;;5053704;28;19932;-41
2023/06/14 08:07:03;;;;;;;;;;;23.70;58.90;;;;;;5035165;28;20340;-42
2023/06/14 08:09:30;;;;;;;;;;;23.70;60.10;;;;;;5032906;28;20408;-40
2023/06/14 08:11:57;;;;;;;;;;;23.80;60.10;;;;;;5034667;28;19932;-41
2023/06/14 08:14:24;;;;;;;;;;;23.90;59.20;;;;;;5033488;28;19971;-40
2023/06/14 08:16:52;;;;;;;;;;;23.90;59.10;;;;;;5050236;28;19928;-42
2023/06/14 08:19:19;;;;;;;;;;;24.10;60.50;;;;;;5053353;28;19932;-41
2023/06/14 08:21:47;;;;;;;;;;;24.20;58.90;;;;;;5053204;28;19925;-42
2023/06/14 08:24:13;;;;;;;;;;;24.30;59.40;;;;;;5053884;28;19925;-40
2023/06/14 08:26:40;;;;;;;;;;;24.60;60.50;;;;;;5032652;28;19968;-42
2023/06/14 08:29:07;;;;;;;;;;;24.80;58.80;;;;;;5016733;28;19972;-42
2023/06/14 08:31:34;;;;;;;;;;;24.90;56.90;;;;;;5033958;28;19932;-40
2023/06/14 08:34:02;;;;;;;;;;;25.00;58.70;;;;;;5034086;28;19925;-40
2023/06/14 08:36:29;;;;;;;;;;;25.20;57.70;;;;;;5045312;28;19928;-40
2023/06/14 08:38:56;;;;;;;;;;;25.40;57.60;;;;;;5036245;28;19928;-42
2023/06/14 08:41:24;;;;;;;;;;;25.40;56.00;;;;;;5054310;28;19929;-42
2023/06/14 08:43:51;;;;;;;;;;;25.50;57.30;;;;;;5052555;28;19928;-41
2023/06/14 08:46:20;;;;;;;;;;;25.50;55.30;;;;;;5053153;28;20303;-41
2023/06/14 08:48:48;;;;;;;;;;;25.50;54.50;;;;;;5053019;28;19978;-42
2023/06/14 08:51:16;;;;;;;;;;;25.60;56.00;;;;;;5053613;28;19925;-41
2023/06/14 08:53:43;;;;;;;;;;;25.70;55.60;;;;;;5053530;28;20051;-41
2023/06/14 08:56:13;;;;;;;;;;;25.80;54.90;;;;;;5044252;28;19925;-42
2023/06/14 08:58:43;;;;;;;;;;;25.80;54.60;;;;;;5032268;28;19925;-42
2023/06/14 09:01:11;;;;;;;;;;;25.90;55.80;;;;;;5032672;28;19925;-42
2023/06/14 09:03:40;;;;;;;;;;;26.00;54.90;;;;;;5033427;28;19925;-42
2023/06/14 09:06:08;;;;;;;;;;;26.00;53.60;;;;;;5039691;28;19947;-42
2023/06/14 09:08:36;;;;;;;;;;;26.00;54.30;;;;;;5053706;28;20273;-41
2023/06/14 09:11:03;;;;;;;;;;;26.10;54.40;;;;;;5053102;28;20035;-42
2023/06/14 09:13:29;;;;;;;;;;;26.20;55.00;;;;;;5052245;28;19972;-42
2023/06/14 09:15:56;;;;;;;;;;;26.30;54.00;;;;;;5052379;28;19975;-42
2023/06/14 09:18:23;;;;;;;;;;;26.30;54.40;;;;;;5052088;28;19929;-42
2023/06/14 09:20:49;;;;;;;;;;;26.40;53.40;;;;;;5040706;28;19929;-41
2023/06/14 09:23:18;;;;;;;;;;;26.30;53.70;;;;;;5032283;28;19932;-42
2023/06/14 09:25:47;;;;;;;;;;;26.30;53.20;;;;;;5036238;28;19970;-41
2023/06/14 09:28:14;;;;;;;;;;;26.50;53.90;;;;;;5052049;28;20427;-39
2023/06/14 09:30:41;;;;;;;;;;;26.60;53.50;;;;;;5051794;28;19931;-42
2023/06/14 09:33:08;;;;;;;;;;;26.50;52.80;;;;;;5050911;28;19925;-41
2023/06/14 09:35:34;;;;;;;;;;;26.50;53.40;;;;;;5052691;28;19932;-42
2023/06/14 09:38:01;;;;;;;;;;;26.60;53.90;;;;;;5051905;28;20384;-40
2023/06/14 09:40:27;;;;;;;;;;;26.70;52.70;;;;;;5052652;28;19924;-41
2023/06/14 09:42:57;;;;;;;;;;;26.90;53.60;;;;;;5052127;28;20297;-42
2023/06/14 09:45:24;;;;;;;;;;;27.00;52.70;;;;;;5051445;28;19925;-41
2023/06/14 09:47:51;;;;;;;;;;;27.10;54.30;;;;;;5052295;28;19932;-41
2023/06/14 09:50:18;;;;;;;;;;;27.40;53.30;;;;;;5034408;28;20432;-42
2023/06/14 09:52:45;;;;;;;;;;;27.50;52.40;;;;;;5051907;28;20347;-41
2023/06/14 09:55:13;;;;;;;;;;;27.50;52.20;;;;;;5052225;28;19978;-40
2023/06/14 09:57:40;;;;;;;;;;;27.50;53.20;;;;;;5053043;28;20020;-42
2023/06/14 10:00:11;;;;;;;;;;;27.60;54.10;;;;;;5067029;28;19924;-42
2023/06/14 10:02:38;;;;;;;;;;;27.70;52.80;;;;;;5046113;28;20007;-41
2023/06/14 10:05:06;;;;;;;;;;;27.80;52.60;;;;;;5032209;28;19932;-42
2023/06/14 10:07:33;;;;;;;;;;;27.70;51.60;;;;;;5032481;28;19933;-42
2023/06/14 10:09:59;;;;;;;;;;;27.70;52.70;;;;;;5032455;28;19976;-41
2023/06/14 10:12:26;;;;;;;;;;;27.80;52.10;;;;;;5042930;28;20023;-42
2023/06/14 10:14:54;;;;;;;;;;;27.80;51.90;;;;;;5068038;28;20366;-42
2023/06/14 10:17:23;;;;;;;;;;;27.80;49.90;;;;;;5052019;28;19924;-41
2023/06/14 10:19:52;;;;;;;;;;;27.70;52.10;;;;;;5067660;28;19975;-41
2023/06/14 10:22:19;;;;;;;;;;;27.70;51.60;;;;;;5066900;28;19935;-41
2023/06/14 10:24:48;;;;;;;;;;;27.80;52.90;;;;;;5067865;28;19971;-42
2023/06/14 10:27:16;;;;;;;;;;;27.90;50.20;;;;;;5067832;28;19924;-42
2023/06/14 10:30:02;;;;;;;;;;;27.80;51.20;;;;;;5067446;28;19960;-40
2023/06/14 10:32:30;;;;;;;;;;;28.00;49.90;;;;;;5051252;28;19975;-42
2023/06/14 10:34:57;;;;;;;;;;;28.00;50.20;;;;;;5067963;28;19960;-42
2023/06/14 10:37:24;;;;;;;;;;;28.00;49.60;;;;;;5067490;28;20406;-41
2023/06/14 10:39:50;;;;;;;;;;;28.00;50.80;;;;;;5052141;28;20340;-42
2023/06/14 10:42:17;;;;;;;;;;;28.20;50.10;;;;;;5051635;28;19924;-38
2023/06/14 10:44:44;;;;;;;;;;;28.30;49.50;;;;;;5067242;28;20027;-42
2023/06/14 10:47:12;;;;;;;;;;;28.30;50.50;;;;;;5052105;28;20269;-42
2023/06/14 10:49:41;;;;;;;;;;;28.40;48.80;;;;;;5051980;28;20368;-42
2023/06/14 10:52:16;;;;;;;;;;;28.50;48.70;;;;;;5051788;28;19924;-42
2023/06/14 10:55:06;;;;;;;;;;;28.50;48.10;;;;;;5050961;28;20004;-42
2023/06/14 10:57:32;;;;;;;;;;;28.50;48.70;;;;;;5051510;28;19924;-42
2023/06/14 10:59:59;;;;;;;;;;;28.50;48.80;;;;;;5051854;28;19987;-38
2023/06/14 11:02:41;;;;;;;;;;;28.50;49.00;;;;;;5049902;28;19924;-40
2023/06/14 11:05:09;;;;;;;;;;;28.60;49.70;;;;;;4988477;28;20008;-42
2023/06/14 11:07:38;;;;;;;;;;;28.70;47.30;;;;;;5031951;28;19931;-41
2023/06/14 11:10:07;;;;;;;;;;;28.60;47.40;;;;;;5014350;28;20016;-42
2023/06/14 11:12:33;;;;;;;;;;;28.60;48.90;;;;;;5037469;28;19924;-42
2023/06/14 11:15:00;;;;;;;;;;;28.80;50.00;;;;;;5046890;28;20384;-39
2023/06/14 11:17:27;;;;;;;;;;;29.00;49.20;;;;;;5050195;28;20036;-41
2023/06/14 11:22:47;;;;;;;;;;;29.10;49.10;;;;;;5088376;28;19912;-43
2023/06/14 11:25:14;;;;;;;;;;;29.30;48.80;;;;;;5069702;28;19928;-42
2023/06/14 11:27:42;;;;;;;;;;;29.40;48.60;;;;;;5068212;28;19968;-43
2023/06/14 11:30:10;;;;;;;;;;;29.50;49.10;;;;;;5069531;28;19931;-43
2023/06/14 11:32:36;;;;;;;;;;;29.70;48.60;;;;;;5068063;28;19925;-42
2023/06/14 11:35:04;;;;;;;;;;;29.70;47.40;;;;;;5068451;28;19932;-42
2023/06/14 11:37:32;;;;;;;;;;;29.50;46.00;;;;;;5069238;28;19979;-42
2023/06/14 11:40:00;;;;;;;;;;;29.30;46.50;;;;;;5068484;28;20291;-41
2023/06/14 11:42:27;;;;;;;;;;;29.20;47.90;;;;;;5064237;28;20393;-42
2023/06/14 11:44:54;;;;;;;;;;;29.20;49.40;;;;;;5049301;28;19972;-42
2023/06/14 11:47:20;;;;;;;;;;;29.40;48.90;;;;;;5054143;28;19924;-42
2023/06/14 11:49:47;;;;;;;;;;;29.50;48.20;;;;;;5068266;28;20025;-42
2023/06/14 11:52:14;;;;;;;;;;;29.60;49.00;;;;;;5064474;28;19975;-42
2023/06/14 11:54:41;;;;;;;;;;;29.70;48.70;;;;;;5049108;28;20012;-42
2023/06/14 11:57:09;;;;;;;;;;;29.80;48.00;;;;;;5059968;28;20244;-40
2023/06/14 11:59:38;;;;;;;;;;;29.80;48.10;;;;;;5067335;28;19924;-42
2023/06/14 12:02:06;;;;;;;;;;;29.80;48.80;;;;;;5067494;28;19925;-42
2023/06/14 12:04:32;;;;;;;;;;;29.90;47.90;;;;;;5067810;28;20372;-42
2023/06/14 12:07:14;;;;;;;;;;;29.90;47.10;;;;;;5068693;28;20027;-42
2023/06/14 12:09:43;;;;;;;;;;;29.90;46.60;;;;;;5067790;28;19924;-43
2023/06/14 12:12:12;;;;;;;;;;;29.90;46.80;;;;;;5067526;28;19925;-43
2023/06/14 12:14:40;;;;;;;;;;;29.90;48.10;;;;;;5068728;28;20391;-42
2023/06/14 12:17:07;;;;;;;;;;;30.00;47.50;;;;;;5067271;28;20410;-42
2023/06/14 12:19:34;;;;;;;;;;;30.00;47.90;;;;;;5067286;28;19925;-42
2023/06/14 12:22:04;;;;;;;;;;;30.20;48.50;;;;;;5067041;28;19924;-42
2023/06/14 12:24:31;;;;;;;;;;;30.30;46.90;;;;;;5068366;28;19931;-43
2023/06/14 12:26:58;;;;;;;;;;;30.40;47.70;;;;;;5068483;28;19924;-42
2023/06/14 12:29:26;;;;;;;;;;;30.60;47.50;;;;;;5066376;28;20288;-42
2023/06/14 12:31:54;;;;;;;;;;;30.60;47.00;;;;;;5066747;28;19925;-42
2023/06/14 12:34:21;;;;;;;;;;;30.70;47.40;;;;;;5054201;28;20404;-42
2023/06/14 12:36:47;;;;;;;;;;;30.80;45.90;;;;;;5054902;28;19971;-40
2023/06/14 12:39:14;;;;;;;;;;;30.90;46.60;;;;;;5039747;28;19975;-41
2023/06/14 12:41:41;;;;;;;;;;;30.90;45.90;;;;;;5033877;28;19925;-42
2023/06/14 12:44:08;;;;;;;;;;;30.80;45.30;;;;;;5034908;28;19925;-42
2023/06/14 12:46:36;;;;;;;;;;;30.70;47.10;;;;;;5034561;28;19964;-42
2023/06/14 12:49:03;;;;;;;;;;;30.90;47.30;;;;;;5047155;28;19932;-41
2023/06/14 12:51:29;;;;;;;;;;;31.10;46.60;;;;;;5054488;28;19978;-42
2023/06/14 12:53:56;;;;;;;;;;;31.10;46.30;;;;;;5054632;28;20426;-43
2023/06/14 12:56:23;;;;;;;;;;;31.10;45.90;;;;;;5054369;28;20007;-41
2023/06/14 12:58:49;;;;;;;;;;;31.00;46.00;;;;;;5053026;28;19983;-39
2023/06/14 13:01:16;;;;;;;;;;;31.00;45.80;;;;;;5043698;28;19968;-43
2023/06/14 13:03:44;;;;;;;;;;;30.90;44.70;;;;;;5033429;28;20357;-42
2023/06/14 13:06:11;;;;;;;;;;;30.70;45.30;;;;;;5034565;28;19926;-43
2023/06/14 13:08:37;;;;;;;;;;;30.70;45.00;;;;;;5042083;28;19924;-41
2023/06/14 13:11:04;;;;;;;;;;;30.60;46.00;;;;;;5054527;28;19980;-43
2023/06/14 13:13:30;;;;;;;;;;;30.50;46.20;;;;;;5054108;28;19972;-42
2023/06/14 13:15:57;;;;;;;;;;;30.50;46.10;;;;;;5049792;28;20025;-42
2023/06/14 13:18:24;;;;;;;;;;;30.50;45.50;;;;;;5041391;28;19968;-41
2023/06/14 13:20:52;;;;;;;;;;;30.40;46.20;;;;;;5065439;28;20339;-41
2023/06/14 13:23:18;;;;;;;;;;;30.40;45.80;;;;;;5049958;28;19925;-41
2023/06/14 13:25:45;;;;;;;;;;;30.30;45.60;;;;;;5034155;28;19933;-42
2023/06/14 13:28:12;;;;;;;;;;;30.30;46.40;;;;;;5033992;28;19925;-41
2023/06/14 13:30:38;;;;;;;;;;;30.20;46.70;;;;;;5036359;28;20365;-43
2023/06/14 13:33:05;;;;;;;;;;;30.40;46.50;;;;;;5054345;28;19924;-42
2023/06/14 13:35:31;;;;;;;;;;;30.50;45.50;;;;;;5049477;28;20016;-43
2023/06/14 13:37:59;;;;;;;;;;;30.40;46.30;;;;;;5034228;28;19929;-42
2023/06/14 13:40:26;;;;;;;;;;;30.30;46.00;;;;;;5032674;28;19925;-42
2023/06/14 13:42:53;;;;;;;;;;;30.40;46.30;;;;;;5035367;28;20333;-42
2023/06/14 13:45:19;;;;;;;;;;;30.50;47.30;;;;;;5051175;28;19967;-41
2023/06/14 13:47:48;;;;;;;;;;;30.70;46.90;;;;;;5053445;28;20288;-42
2023/06/14 13:50:16;;;;;;;;;;;31.00;46.60;;;;;;5053738;28;19932;-42
2023/06/14 13:52:42;;;;;;;;;;;31.10;44.70;;;;;;5053273;28;19944;-39
2023/06/14 13:55:10;;;;;;;;;;;31.00;45.10;;;;;;5052747;28;19929;-43
2023/06/14 13:57:37;;;;;;;;;;;30.80;45.50;;;;;;5053071;28;20416;-42
2023/06/14 14:00:04;;;;;;;;;;;30.90;44.70;;;;;;5053209;28;19960;-43
2023/06/14 14:02:31;;;;;;;;;;;30.70;45.50;;;;;;5053087;28;20315;-42
2023/06/14 14:04:58;;;;;;;;;;;30.80;45.80;;;;;;5050926;28;19932;-43
2023/06/14 14:07:24;;;;;;;;;;;31.00;45.80;;;;;;5052253;28;20383;-43
2023/06/14 14:09:51;;;;;;;;;;;31.20;46.50;;;;;;5051995;28;19925;-43
2023/06/14 14:12:19;;;;;;;;;;;31.50;47.10;;;;;;5052142;28;19924;-43
2023/06/14 14:14:46;;;;;;;;;;;31.60;46.00;;;;;;5049744;28;19971;-43
2023/06/14 14:17:13;;;;;;;;;;;31.70;45.80;;;;;;5052173;28;19928;-41
2023/06/14 14:19:39;;;;;;;;;;;31.60;45.50;;;;;;5053014;28;19990;-43